Lobo

Go HERE for most recent data if this page is not up to date.

Jump to table bottom
Date/Time Temp deg F RH % 24 Hr Snow (in) Snow Depth (in) H2O (in)
01/27 16:00 19.0 81 2.9 48.1 0.00
01/27 15:00 19.8 66 2.8 48.0 0.00
01/27 14:00 20.8 65 2.8 48.0 0.00
01/27 13:00 20.4 62 3.0 48.3 0.00
01/27 12:00 18.9 67 3.1 48.4 0.00
01/27 11:00 17.8 73 2.9 47.9 0.01
01/27 10:00 16.7 80 3.0 48.6 0.00
01/27 09:00 17.1 83 3.1 48.7 0.00
01/27 08:00 17.7 86 3.2 48.9 0.00
01/27 07:00 18.3 76 3.2 49.0 0.03
01/27 06:00 18.8 90 2.9 47.9 0.04
01/27 05:00 18.9 88 0.8 47.0 0.04
01/27 04:00 19.8 88 1.2 46.8 0.01
01/27 03:00 21.4 87 1.1 46.9 0.01
01/27 02:00 22.5 90 1.0 46.7 0.02
01/27 01:00 23.7 92 0.7 46.3 0.02
01/27 00:00 24.1 94 0.5 46.5 0.01
01/26 23:00 24.2 95 0.5 46.6 0.00
01/26 22:00 24.5 95 0.5 46.7 0.00
01/26 21:00 23.9 94 0.5 46.7 0.01
01/26 20:00 24.0 94 0.4 46.6 0.01
01/26 19:00 24.5 95 0.3 46.5 0.01
01/26 18:00 24.6 95 0.3 46.7 0.00
01/26 17:00 25.1 90 0.2 46.3 0.01
01/26 16:00 24.4 94 -0.0 46.3 0.01
01/26 15:00 24.3 92 0.2 46.0 0.00
01/26 14:00 25.3 87 -0.0 45.9 0.00
01/26 13:00 24.9 70 0.0 45.5 0.00
01/26 12:00 23.0 67 -0.0 45.6 0.00
01/26 11:00 20.7 80 -0.0 45.7 0.00
01/26 10:00 19.7 81 0.0 45.8 0.00
01/26 09:00 20.2 80 0.0 45.9 0.00
01/26 08:00 21.1 47 0.2 46.2 0.00
01/26 07:00 19.7 71 0.1 46.0 0.00
01/26 06:00 18.9 74 0.1 46.1 0.00
01/26 05:00 19.3 80 0.0 46.1 0.00
01/26 04:00 19.6 76 0.0 46.0 0.00
01/26 03:00 19.8 71 0.2 46.1 0.00
01/26 02:00 20.7 75 0.0 46.0 0.00
01/26 01:00 20.9 80 0.0 45.9 0.01
01/26 00:00 21.4 85 0.0 46.1 0.00
.